CheckWX is a tool to help pilots better visualize weather data.  It is not intended as a substitute for an official pre-flight weather briefing.

18:48:55 UTC

LLBG METAR
Ben Gurion International Airport
Tel Aviv, Israel
Current

29 mins ago

LLBG 271820Z VRB01KT CAVOK 13/08 Q1021 NOSIG
Observed
Jan-27 @ 18:20 UTC
Wind
  • Variable at 1 KTS
Visibility
10,000+ meters
Flight Rules
VFR
Cloud Levels
  • Clear skies
Temperature
13°C / 55°F
Dewpoint
C / 46°F
Humidity
72%
Altimeter
30.15" Hg
Pressure
1020.92 hPa
Previous

59 mins ago

LLBG 271750Z VRB03KT CAVOK 13/09 Q1021 NOSIG
Observed
Jan-27 @ 17:50 UTC
Wind
  • Variable at 3 KTS
Visibility
10,000+ meters
Flight Rules
VFR
Cloud Levels
  • Clear skies
Temperature
13°C / 55°F
Dewpoint
C / 48°F
Humidity
77%
Altimeter
30.15" Hg
Pressure
1020.92 hPa
Previous

1 hour ago

LLBG 271720Z 31004KT CAVOK 13/09 Q1021 NOSIG
Observed
Jan-27 @ 17:20 UTC
Wind
  • 310° at 4 KTS
Visibility
10,000+ meters
Flight Rules
VFR
Cloud Levels
  • Clear skies
Temperature
13°C / 55°F
Dewpoint
C / 48°F
Humidity
77%
Altimeter
30.15" Hg
Pressure
1020.92 hPa